Time;durP1;ratioP1;P1;durP2;ratioP2;P2;SDS_P1;SDS_P2;PMS_P1;PMS_P2;Temp;Humidity;BMP_temperature;BMP_pressure;BME280_temperature;BME280_humidity;BME280_pressure;Samples;Min_cycle;Max_cycle;Signal;HPM_P1;HPM_P2
2023/04/13 00:02:45;;;;;;;6.88;5.05;;;;;;;;;;10292101;28;20526;-65
2023/04/13 00:07:45;;;;;;;4.15;3.85;;;;;;;;;;10289566;28;20072;-64
2023/04/13 00:12:46;;;;;;;4.20;3.80;;;;;;;;;;10286759;28;20463;-65
2023/04/13 00:17:46;;;;;;;5.15;4.15;;;;;;;;;;10286945;28;20079;-65
2023/04/13 00:22:46;;;;;;;3.90;3.50;;;;;;;;;;10289266;28;20075;-64
2023/04/13 00:27:44;;;;;;;6.53;4.18;;;;;;;;;;10288648;28;20064;-64
2023/04/13 00:32:44;;;;;;;4.20;3.80;;;;;;;;;;10276348;28;20068;-65
2023/04/13 00:37:43;;;;;;;3.50;3.20;;;;;;;;;;10288133;28;20064;-66
2023/04/13 00:42:44;;;;;;;3.60;3.30;;;;;;;;;;10287976;28;20477;-65
2023/04/13 00:47:45;;;;;;;5.05;3.78;;;;;;;;;;10286584;28;20541;-65
2023/04/13 00:52:44;;;;;;;4.32;3.92;;;;;;;;;;10287740;28;20481;-65
2023/04/13 00:57:44;;;;;;;4.20;3.40;;;;;;;;;;10286884;28;20471;-66
2023/04/13 01:02:42;;;;;;;4.00;3.60;;;;;;;;;;10273813;28;20071;-66
2023/04/13 01:07:46;;;;;;;4.63;4.20;;;;;;;;;;10285945;28;20060;-66
2023/04/13 01:12:49;;;;;;;4.10;3.80;;;;;;;;;;10284898;28;20514;-66
2023/04/13 01:17:52;;;;;;;3.97;3.67;;;;;;;;;;10272666;28;20517;-66
2023/04/13 01:22:56;;;;;;;3.53;3.22;;;;;;;;;;10287878;28;20061;-66
2023/04/13 01:27:57;;;;;;;4.05;3.50;;;;;;;;;;10273470;28;20443;-65
2023/04/13 01:32:56;;;;;;;3.90;3.50;;;;;;;;;;10286087;28;20052;-66
2023/04/13 01:37:57;;;;;;;3.80;3.30;;;;;;;;;;10272505;28;20084;-66
2023/04/13 01:42:57;;;;;;;3.97;3.50;;;;;;;;;;10291217;28;20119;-66
2023/04/13 01:48:06;;;;;;;3.88;3.40;;;;;;;;;;10277452;28;20099;-66
2023/04/13 01:53:18;;;;;;;5.18;3.22;;;;;;;;;;10280656;28;20076;-66
2023/04/13 01:58:18;;;;;;;5.80;3.25;;;;;;;;;;10290064;28;20076;-66
2023/04/13 02:03:25;;;;;;;3.35;3.05;;;;;;;;;;10291791;28;20053;-66
2023/04/13 02:08:24;;;;;;;3.38;3.08;;;;;;;;;;10291221;28;20064;-66
2023/04/13 02:13:24;;;;;;;6.90;4.95;;;;;;;;;;10288305;28;20076;-66
2023/04/13 02:18:22;;;;;;;5.13;2.70;;;;;;;;;;10287774;28;20080;-66
2023/04/13 02:23:20;;;;;;;3.67;3.15;;;;;;;;;;10280423;28;20076;-65
2023/04/13 02:28:19;;;;;;;3.88;3.58;;;;;;;;;;10275282;28;20430;-66
2023/04/13 02:33:20;;;;;;;3.15;2.85;;;;;;;;;;10296419;28;20541;-66
2023/04/13 02:38:19;;;;;;;3.78;3.33;;;;;;;;;;10272969;28;20885;-65
2023/04/13 02:43:22;;;;;;;4.68;3.33;;;;;;;;;;10289542;28;20517;-66
2023/04/13 02:48:22;;;;;;;3.15;2.95;;;;;;;;;;10290440;28;21926;-65
2023/04/13 02:53:23;;;;;;;3.28;2.97;;;;;;;;;;10284926;28;20072;-65
2023/04/13 02:58:25;;;;;;;4.03;3.65;;;;;;;;;;10290556;28;20110;-65
2023/04/13 03:03:32;;;;;;;4.25;3.42;;;;;;;;;;10286112;28;20486;-65
2023/04/13 03:08:30;;;;;;;5.30;3.95;;;;;;;;;;10290889;28;20065;-65
2023/04/13 03:13:37;;;;;;;3.10;2.80;;;;;;;;;;10289847;28;20092;-65
2023/04/13 03:18:37;;;;;;;3.25;2.92;;;;;;;;;;10291326;28;20084;-65
2023/04/13 03:23:37;;;;;;;2.97;2.72;;;;;;;;;;10288893;28;20080;-65
2023/04/13 03:28:40;;;;;;;3.00;2.70;;;;;;;;;;10289741;28;20072;-65
2023/04/13 03:33:40;;;;;;;3.63;3.30;;;;;;;;;;10284968;28;20079;-65
2023/04/13 03:38:39;;;;;;;3.28;2.97;;;;;;;;;;10287372;28;20091;-65
2023/04/13 03:43:37;;;;;;;3.42;3.03;;;;;;;;;;10288173;28;20081;-65
2023/04/13 03:48:41;;;;;;;3.78;3.47;;;;;;;;;;10286301;28;20080;-66
2023/04/13 03:53:44;;;;;;;4.18;3.78;;;;;;;;;;10286780;28;20087;-66
2023/04/13 03:58:43;;;;;;;6.47;4.03;;;;;;;;;;10287040;28;20536;-66
2023/04/13 04:03:46;;;;;;;4.75;4.30;;;;;;;;;;10272005;28;20091;-66
2023/04/13 04:08:48;;;;;;;6.85;4.50;;;;;;;;;;10270420;28;20072;-66
2023/04/13 04:13:58;;;;;;;9.35;7.90;;;;;;;;;;10282687;28;20076;-65
2023/04/13 04:18:58;;;;;;;7.30;6.30;;;;;;;;;;10284476;28;20082;-66
2023/04/13 04:23:59;;;;;;;9.38;7.05;;;;;;;;;;10273027;28;20068;-65
2023/04/13 04:29:00;;;;;;;47.00;24.30;;;;;;;;;;10283119;28;20083;-66
2023/04/13 04:34:03;;;;;;;6.78;4.93;;;;;;;;;;10287997;28;20091;-65
2023/04/13 04:39:05;;;;;;;8.43;6.95;;;;;;;;;;10270859;28;20086;-65
2023/04/13 04:44:11;;;;;;;24.25;14.75;;;;;;;;;;10302265;28;20080;-66
2023/04/13 04:49:14;;;;;;;6.20;5.20;;;;;;;;;;10286164;28;20077;-65
2023/04/13 04:54:12;;;;;;;3.85;3.15;;;;;;;;;;10265310;28;20087;-65
2023/04/13 04:59:11;;;;;;;17.85;11.80;;;;;;;;;;10273409;28;20073;-65
2023/04/13 05:04:24;;;;;;;10.95;5.30;;;;;;;;;;10286970;28;20068;-65
2023/04/13 05:09:23;;;;;;;8.20;6.75;;;;;;;;;;10281266;28;20122;-66
2023/04/13 05:14:23;;;;;;;6.70;5.75;;;;;;;;;;10272215;28;20057;-64
2023/04/13 05:19:22;;;;;;;8.43;5.78;;;;;;;;;;10290300;28;20076;-64
2023/04/13 05:24:24;;;;;;;6.55;5.53;;;;;;;;;;10278748;28;20517;-66
2023/04/13 05:29:23;;;;;;;10.02;5.82;;;;;;;;;;10290976;28;20076;-64
2023/04/13 05:34:22;;;;;;;12.25;7.88;;;;;;;;;;10283732;28;20583;-65
2023/04/13 05:39:34;;;;;;;11.52;7.22;;;;;;;;;;10279063;28;20085;-64
2023/04/13 05:44:32;;;;;;;13.32;7.00;;;;;;;;;;10277310;28;20080;-65
2023/04/13 05:49:31;;;;;;;20.20;12.95;;;;;;;;;;10271526;28;20503;-65
2023/04/13 05:54:30;;;;;;;8.45;5.53;;;;;;;;;;10263570;28;20482;-65
2023/04/13 05:59:29;;;;;;;6.30;5.30;;;;;;;;;;10281204;28;20079;-65
2023/04/13 06:04:30;;;;;;;4.15;3.65;;;;;;;;;;10272258;28;20522;-65
2023/04/13 06:09:29;;;;;;;7.60;4.50;;;;;;;;;;10285131;28;20076;-66
2023/04/13 06:14:28;;;;;;;8.07;4.63;;;;;;;;;;10272248;28;20068;-66
2023/04/13 06:19:27;;;;;;;4.90;4.40;;;;;;;;;;10287795;28;20064;-64
2023/04/13 06:24:26;;;;;;;6.18;5.03;;;;;;;;;;10254136;28;20746;-65
2023/04/13 06:29:25;;;;;;;6.82;4.68;;;;;;;;;;10265517;28;20083;-66
2023/04/13 06:34:34;;;;;;;5.85;3.80;;;;;;;;;;10266221;28;20491;-66
2023/04/13 06:39:36;;;;;;;3.92;3.13;;;;;;;;;;10254889;28;20079;-66
2023/04/13 06:44:36;;;;;;;3.78;3.33;;;;;;;;;;10274602;28;20098;-65
2023/04/13 06:49:36;;;;;;;5.07;3.40;;;;;;;;;;10276482;28;20781;-65
2023/04/13 06:54:36;;;;;;;4.88;3.80;;;;;;;;;;10268643;28;20076;-65
2023/04/13 06:59:43;;;;;;;6.25;4.65;;;;;;;;;;10269123;28;20087;-65
2023/04/13 07:04:42;;;;;;;8.40;6.13;;;;;;;;;;10276612;28;20068;-64
2023/04/13 07:09:41;;;;;;;16.20;11.05;;;;;;;;;;10264116;28;20200;-66
2023/04/13 07:14:40;;;;;;;11.05;7.47;;;;;;;;;;10286247;28;20080;-65
2023/04/13 07:19:46;;;;;;;6.65;5.97;;;;;;;;;;10284710;28;20076;-65
2023/04/13 07:24:45;;;;;;;5.22;4.60;;;;;;;;;;10275157;28;20072;-65
2023/04/13 07:29:47;;;;;;;7.68;7.03;;;;;;;;;;10285893;28;20076;-65
2023/04/13 07:34:51;;;;;;;4.20;3.80;;;;;;;;;;10280890;28;20506;-65
2023/04/13 07:39:49;;;;;;;6.03;5.03;;;;;;;;;;10273936;28;20099;-65
2023/04/13 07:44:54;;;;;;;5.30;4.40;;;;;;;;;;10277672;28;20077;-65
2023/04/13 07:49:55;;;;;;;7.80;6.97;;;;;;;;;;10292317;28;20443;-66
2023/04/13 07:54:54;;;;;;;4.53;4.10;;;;;;;;;;10275733;28;20103;-65
2023/04/13 07:59:54;;;;;;;3.85;3.55;;;;;;;;;;10274834;28;20087;-65
2023/04/13 08:04:52;;;;;;;4.40;4.00;;;;;;;;;;10287421;28;20071;-65
2023/04/13 08:09:57;;;;;;;18.73;14.87;;;;;;;;;;10303167;28;20084;-65
2023/04/13 08:14:58;;;;;;;3.47;3.17;;;;;;;;;;10285265;28;20080;-65
2023/04/13 08:19:56;;;;;;;3.85;3.53;;;;;;;;;;10285724;28;20084;-65
2023/04/13 08:24:55;;;;;;;6.82;5.80;;;;;;;;;;10285530;28;20076;-66
2023/04/13 08:30:00;;;;;;;7.03;5.53;;;;;;;;;;10287172;28;20079;-66
2023/04/13 08:35:08;;;;;;;3.88;3.47;;;;;;;;;;10274191;28;20525;-66
2023/04/13 08:40:09;;;;;;;6.10;4.40;;;;;;;;;;10291763;28;20091;-65
2023/04/13 08:45:11;;;;;;;4.03;3.67;;;;;;;;;;10274011;28;20048;-65
2023/04/13 08:50:16;;;;;;;4.70;4.22;;;;;;;;;;10288287;28;20085;-66
2023/04/13 08:55:18;;;;;;;8.82;7.90;;;;;;;;;;10282568;28;20075;-66
2023/04/13 09:00:22;;;;;;;9.00;5.47;;;;;;;;;;10283547;28;20540;-66
2023/04/13 09:05:22;;;;;;;5.43;4.60;;;;;;;;;;10284014;28;20072;-66
2023/04/13 09:10:25;;;;;;;6.93;5.72;;;;;;;;;;10285417;28;20518;-66
2023/04/13 09:15:25;;;;;;;8.55;4.95;;;;;;;;;;10290039;28;20453;-68
2023/04/13 09:20:32;;;;;;;4.32;3.92;;;;;;;;;;10287186;28;20083;-67
2023/04/13 09:25:30;;;;;;;5.28;4.78;;;;;;;;;;10283382;28;20506;-66
2023/04/13 09:30:30;;;;;;;7.15;4.60;;;;;;;;;;10282329;28;20080;-67
2023/04/13 09:35:29;;;;;;;6.90;5.78;;;;;;;;;;10288144;28;20068;-66
2023/04/13 09:40:28;;;;;;;7.18;4.55;;;;;;;;;;10289727;28;20091;-66
2023/04/13 09:45:35;;;;;;;7.13;4.85;;;;;;;;;;10290694;28;20065;-66
2023/04/13 09:50:35;;;;;;;6.55;4.63;;;;;;;;;;10288599;28;20068;-66
2023/04/13 09:55:35;;;;;;;15.85;9.07;;;;;;;;;;10291489;28;20073;-66
2023/04/13 10:00:36;;;;;;;8.75;7.13;;;;;;;;;;10290696;28;20084;-66
2023/04/13 10:05:34;;;;;;;5.18;4.53;;;;;;;;;;10295775;28;20069;-66
2023/04/13 10:10:49;;;;;;;5.95;4.63;;;;;;;;;;10296391;28;20080;-66
2023/04/13 10:15:58;;;;;;;4.93;4.07;;;;;;;;;;10295440;28;20071;-66
2023/04/13 10:21:01;;;;;;;4.00;3.35;;;;;;;;;;10295972;28;20065;-66
2023/04/13 10:26:02;;;;;;;3.63;2.83;;;;;;;;;;10296154;28;20466;-66
2023/04/13 10:31:04;;;;;;;14.07;3.75;;;;;;;;;;10292886;28;20079;-67
2023/04/13 10:36:02;;;;;;;7.53;3.75;;;;;;;;;;10293738;28;20072;-66
2023/04/13 10:41:02;;;;;;;5.50;3.10;;;;;;;;;;10293827;28;20084;-66
2023/04/13 10:46:08;;;;;;;12.27;7.28;;;;;;;;;;10294469;28;20087;-67
2023/04/13 10:51:07;;;;;;;3.40;3.00;;;;;;;;;;10292088;28;20461;-66
2023/04/13 10:56:15;;;;;;;6.13;3.15;;;;;;;;;;10295940;28;20087;-66
2023/04/13 11:01:15;;;;;;;3.70;3.40;;;;;;;;;;10293985;28;20072;-66
2023/04/13 11:06:14;;;;;;;2.42;2.00;;;;;;;;;;10293796;28;20067;-66
2023/04/13 11:11:12;;;;;;;6.93;4.28;;;;;;;;;;10295032;28;20077;-66
2023/04/13 11:16:12;;;;;;;4.47;3.30;;;;;;;;;;10292018;28;20087;-65
2023/04/13 11:21:15;;;;;;;2.15;1.90;;;;;;;;;;10296254;28;20076;-66
2023/04/13 11:26:15;;;;;;;4.60;3.55;;;;;;;;;;10292368;28;20471;-65
2023/04/13 11:31:13;;;;;;;2.30;2.10;;;;;;;;;;10292723;28;20278;-66
2023/04/13 11:36:12;;;;;;;6.93;2.47;;;;;;;;;;10294138;28;20083;-65
2023/04/13 11:41:12;;;;;;;3.13;2.22;;;;;;;;;;10292230;28;20158;-66
2023/04/13 11:46:14;;;;;;;4.68;2.67;;;;;;;;;;10276772;28;20418;-66
2023/04/13 11:51:15;;;;;;;6.68;5.85;;;;;;;;;;10292622;28;20072;-66
2023/04/13 11:56:15;;;;;;;4.63;2.05;;;;;;;;;;10292566;28;20076;-66
2023/04/13 12:01:14;;;;;;;4.30;2.40;;;;;;;;;;10291152;28;20079;-66
2023/04/13 12:06:23;;;;;;;3.35;2.22;;;;;;;;;;10292310;28;20083;-66
2023/04/13 12:11:23;;;;;;;4.10;2.50;;;;;;;;;;10291311;28;20069;-66
2023/04/13 12:16:39;;;;;;;3.20;2.20;;;;;;;;;;10291106;28;20064;-66
2023/04/13 12:21:49;;;;;;;2.53;2.33;;;;;;;;;;10292598;28;20083;-66
2023/04/13 12:26:51;;;;;;;4.25;2.85;;;;;;;;;;10288977;28;20041;-66
2023/04/13 12:31:58;;;;;;;3.20;2.00;;;;;;;;;;10289093;28;20081;-66
2023/04/13 12:36:57;;;;;;;;;;;;;;;;;;10289988;28;20064;-66
2023/04/13 12:41:57;;;;;;;4.38;2.72;;;;;;;;;;10288111;28;20041;-66
2023/04/13 12:46:55;;;;;;;3.80;3.45;;;;;;;;;;10290023;28;20545;-66
2023/04/13 12:51:54;;;;;;;4.93;3.25;;;;;;;;;;10291279;28;20554;-67
2023/04/13 12:56:52;;;;;;;3.67;2.25;;;;;;;;;;10289753;28;20072;-67
2023/04/13 13:01:52;;;;;;;3.97;3.17;;;;;;;;;;10289519;28;20072;-67
2023/04/13 13:06:51;;;;;;;4.63;4.05;;;;;;;;;;10288504;28;20190;-67
2023/04/13 13:11:50;;;;;;;5.80;5.15;;;;;;;;;;10288373;28;20065;-66
2023/04/13 13:16:49;;;;;;;2.47;2.28;;;;;;;;;;10290931;28;20080;-66
2023/04/13 13:21:48;;;;;;;4.10;2.35;;;;;;;;;;10289984;28;20072;-67
2023/04/13 13:26:47;;;;;;;4.10;2.88;;;;;;;;;;10290125;28;20064;-66
2023/04/13 13:31:50;;;;;;;3.20;2.83;;;;;;;;;;10290028;28;20080;-66
2023/04/13 13:36:49;;;;;;;3.75;3.00;;;;;;;;;;10292447;28;20074;-66
2023/04/13 13:41:48;;;;;;;3.58;2.65;;;;;;;;;;10295561;28;20076;-66
2023/04/13 13:46:46;;;;;;;4.90;2.65;;;;;;;;;;10295249;28;20076;-67
2023/04/13 13:51:44;;;;;;;4.80;3.33;;;;;;;;;;10295813;28;20087;-66
2023/04/13 13:56:47;;;;;;;3.55;2.00;;;;;;;;;;10294562;28;20459;-66
2023/04/13 14:01:45;;;;;;;6.53;5.63;;;;;;;;;;10295759;28;20596;-66
2023/04/13 14:06:44;;;;;;;3.78;2.00;;;;;;;;;;10284157;28;20061;-64
2023/04/13 14:11:47;;;;;;;4.10;2.92;;;;;;;;;;10282337;28;20072;-66
2023/04/13 14:16:45;;;;;;;7.68;4.65;;;;;;;;;;10291993;28;20087;-66
2023/04/13 14:21:43;;;;;;;15.55;8.57;;;;;;;;;;10292143;28;20485;-66
2023/04/13 14:26:42;;;;;;;10.95;5.97;;;;;;;;;;10291239;28;20068;-66
2023/04/13 14:31:41;;;;;;;7.65;4.13;;;;;;;;;;10291452;28;20103;-66
2023/04/13 14:36:41;;;;;;;3.05;2.72;;;;;;;;;;10294547;28;20065;-65
2023/04/13 14:41:39;;;;;;;3.60;2.72;;;;;;;;;;10292650;28;20088;-66
2023/04/13 14:46:37;;;;;;;6.43;5.55;;;;;;;;;;10290400;28;20071;-66
2023/04/13 14:51:38;;;;;;;4.65;3.05;;;;;;;;;;10296073;28;20101;-66
2023/04/13 14:56:36;;;;;;;4.07;3.08;;;;;;;;;;10293689;28;20064;-66
2023/04/13 15:01:34;;;;;;;5.30;2.28;;;;;;;;;;10292566;28;20121;-66
2023/04/13 15:06:34;;;;;;;11.07;3.25;;;;;;;;;;10290074;28;20075;-66
2023/04/13 15:11:34;;;;;;;7.30;3.60;;;;;;;;;;10292259;28;20079;-66
2023/04/13 15:16:32;;;;;;;14.70;10.65;;;;;;;;;;10294370;28;20076;-66
2023/04/13 15:21:30;;;;;;;5.32;3.80;;;;;;;;;;10292665;28;20564;-66
2023/04/13 15:26:29;;;;;;;2.80;2.55;;;;;;;;;;10293432;28;20068;-66
2023/04/13 15:31:28;;;;;;;5.13;3.97;;;;;;;;;;10293136;28;20072;-65
2023/04/13 15:36:27;;;;;;;3.45;2.55;;;;;;;;;;10290756;28;20076;-65
2023/04/13 15:41:26;;;;;;;3.97;3.47;;;;;;;;;;10276809;28;20084;-65
2023/04/13 15:46:24;;;;;;;2.35;1.65;;;;;;;;;;10292631;28;20072;-65
2023/04/13 15:51:26;;;;;;;5.55;3.50;;;;;;;;;;10292852;28;20073;-66
2023/04/13 15:56:24;;;;;;;5.78;2.13;;;;;;;;;;10290365;28;20060;-65
2023/04/13 16:01:22;;;;;;;5.53;2.65;;;;;;;;;;10288979;28;20533;-66
2023/04/13 16:06:21;;;;;;;12.10;5.25;;;;;;;;;;10292114;28;20072;-66
2023/04/13 16:11:20;;;;;;;5.47;4.97;;;;;;;;;;10293237;28;20338;-66
2023/04/13 16:16:18;;;;;;;13.68;12.35;;;;;;;;;;10291886;28;20068;-66
2023/04/13 16:21:18;;;;;;;9.82;3.70;;;;;;;;;;10291889;28;20080;-66
2023/04/13 16:26:16;;;;;;;7.53;5.38;;;;;;;;;;10290240;28;20087;-66
2023/04/13 16:31:16;;;;;;;19.00;12.10;;;;;;;;;;10292029;28;20552;-66
2023/04/13 16:36:14;;;;;;;37.35;25.73;;;;;;;;;;10289739;28;20068;-66
2023/04/13 16:41:14;;;;;;;59.58;42.72;;;;;;;;;;10291892;28;20092;-66
2023/04/13 16:46:13;;;;;;;149.85;103.70;;;;;;;;;;10290823;28;20120;-66
2023/04/13 16:51:13;;;;;;;172.45;122.22;;;;;;;;;;10288624;28;20083;-66
2023/04/13 16:56:11;;;;;;;147.40;113.82;;;;;;;;;;10288283;28;20115;-67
2023/04/13 17:01:13;;;;;;;61.88;46.72;;;;;;;;;;10288171;28;20474;-66
2023/04/13 17:06:12;;;;;;;51.85;37.95;;;;;;;;;;10292199;28;20061;-65
2023/04/13 17:11:24;;;;;;;18.77;12.15;;;;;;;;;;10292430;28;20562;-66
2023/04/13 17:16:27;;;;;;;11.30;6.38;;;;;;;;;;10297809;28;20091;-65
2023/04/13 17:21:27;;;;;;;18.98;12.70;;;;;;;;;;10297412;28;20083;-66
2023/04/13 17:26:25;;;;;;;13.80;9.88;;;;;;;;;;10296465;28;20077;-67
2023/04/13 17:31:24;;;;;;;14.88;9.45;;;;;;;;;;10299899;28;20076;-66
2023/04/13 17:36:22;;;;;;;13.13;6.97;;;;;;;;;;10297679;28;20072;-66
2023/04/13 17:41:22;;;;;;;9.25;7.05;;;;;;;;;;10300111;28;20079;-66
2023/04/13 17:46:20;;;;;;;8.52;5.85;;;;;;;;;;10296882;28;20056;-66
2023/04/13 17:51:18;;;;;;;12.98;8.40;;;;;;;;;;10297968;28;20065;-66
2023/04/13 17:56:17;;;;;;;9.15;6.35;;;;;;;;;;10294973;28;20090;-66
2023/04/13 18:01:16;;;;;;;6.95;5.50;;;;;;;;;;10297729;28;20072;-66
2023/04/13 18:06:15;;;;;;;5.63;4.85;;;;;;;;;;10297354;28;20060;-66
2023/04/13 18:11:13;;;;;;;5.82;3.67;;;;;;;;;;10296464;28;20069;-66
2023/04/13 18:16:11;;;;;;;9.43;5.32;;;;;;;;;;10294597;28;20037;-66
2023/04/13 18:21:12;;;;;;;10.63;7.60;;;;;;;;;;10297277;28;20091;-66
2023/04/13 18:26:11;;;;;;;13.38;9.95;;;;;;;;;;10296037;28;20075;-66
2023/04/13 18:31:09;;;;;;;21.58;14.98;;;;;;;;;;10294972;28;20072;-66
2023/04/13 18:36:07;;;;;;;10.38;7.90;;;;;;;;;;10295180;28;20087;-65
2023/04/13 18:41:07;;;;;;;11.05;7.45;;;;;;;;;;10295714;28;20091;-66
2023/04/13 18:46:07;;;;;;;12.60;8.75;;;;;;;;;;10295140;28;20075;-65
2023/04/13 18:51:08;;;;;;;4.88;3.72;;;;;;;;;;10296064;28;20515;-66
2023/04/13 18:56:08;;;;;;;4.47;3.88;;;;;;;;;;10294749;28;20068;-65
2023/04/13 19:01:13;;;;;;;6.22;3.42;;;;;;;;;;10295256;28;20069;-65
2023/04/13 19:06:11;;;;;;;6.32;3.30;;;;;;;;;;10295313;28;20065;-65
2023/04/13 19:11:12;;;;;;;6.20;4.10;;;;;;;;;;10294527;28;20076;-66
2023/04/13 19:16:11;;;;;;;8.38;4.13;;;;;;;;;;10294978;28;20071;-66
2023/04/13 19:21:10;;;;;;;5.22;2.90;;;;;;;;;;10293672;28;20083;-66
2023/04/13 19:26:08;;;;;;;2.10;1.88;;;;;;;;;;10291284;28;20493;-65
2023/04/13 19:31:08;;;;;;;3.45;3.15;;;;;;;;;;10279411;28;20057;-66
2023/04/13 19:36:07;;;;;;;2.97;2.30;;;;;;;;;;10278421;28;20072;-65
2023/04/13 19:41:05;;;;;;;3.53;2.95;;;;;;;;;;10284402;28;20084;-66
2023/04/13 19:46:03;;;;;;;5.10;2.75;;;;;;;;;;10279960;28;20079;-66
2023/04/13 19:51:03;;;;;;;4.43;3.65;;;;;;;;;;10288079;28;20079;-66
2023/04/13 19:56:01;;;;;;;2.92;2.40;;;;;;;;;;10276690;28;20063;-66
2023/04/13 20:01:00;;;;;;;3.17;2.45;;;;;;;;;;10289614;28;20505;-66
2023/04/13 20:05:59;;;;;;;6.85;3.22;;;;;;;;;;10279431;28;20076;-66
2023/04/13 20:10:58;;;;;;;4.53;3.70;;;;;;;;;;10283511;28;20509;-66
2023/04/13 20:15:57;;;;;;;3.90;3.20;;;;;;;;;;10281991;28;20090;-65
2023/04/13 20:20:55;;;;;;;3.75;2.70;;;;;;;;;;10278540;28;20095;-65
2023/04/13 20:25:53;;;;;;;4.90;3.13;;;;;;;;;;10282830;28;20506;-65
2023/04/13 20:30:53;;;;;;;6.57;3.50;;;;;;;;;;10281967;28;20071;-65
2023/04/13 20:35:52;;;;;;;3.35;2.60;;;;;;;;;;10283077;28;20068;-64
2023/04/13 20:40:50;;;;;;;4.97;2.50;;;;;;;;;;10281917;28;20549;-64
2023/04/13 20:45:49;;;;;;;5.13;2.63;;;;;;;;;;10282235;28;20079;-65
2023/04/13 20:50:48;;;;;;;3.85;2.40;;;;;;;;;;10287712;28;20085;-64
2023/04/13 20:55:47;;;;;;;3.00;2.63;;;;;;;;;;10286869;28;20083;-64
2023/04/13 21:00:45;;;;;;;3.22;2.85;;;;;;;;;;10277246;28;20071;-64
2023/04/13 21:05:43;;;;;;;4.57;3.38;;;;;;;;;;10286398;28;20103;-65
2023/04/13 21:10:43;;;;;;;3.47;2.60;;;;;;;;;;10283861;28;20064;-64
2023/04/13 21:15:41;;;;;;;6.88;3.50;;;;;;;;;;10275814;28;20072;-64
2023/04/13 21:20:39;;;;;;;4.10;2.88;;;;;;;;;;10286478;28;20076;-64
2023/04/13 21:25:38;;;;;;;4.43;3.33;;;;;;;;;;10285782;28;20084;-64
2023/04/13 21:30:38;;;;;;;2.97;2.67;;;;;;;;;;10284565;28;20183;-64
2023/04/13 21:35:36;;;;;;;5.45;3.65;;;;;;;;;;10280253;28;20077;-64
2023/04/13 21:40:35;;;;;;;3.00;2.70;;;;;;;;;;10284185;28;20080;-65
2023/04/13 21:45:33;;;;;;;3.53;3.22;;;;;;;;;;10285804;28;20513;-65
2023/04/13 21:50:32;;;;;;;3.80;3.17;;;;;;;;;;10283409;28;20076;-65
2023/04/13 21:55:31;;;;;;;6.38;2.65;;;;;;;;;;10287436;28;20148;-65
2023/04/13 22:00:29;;;;;;;3.70;2.72;;;;;;;;;;10281817;28;20068;-64
2023/04/13 22:05:27;;;;;;;6.80;3.13;;;;;;;;;;10281332;28;20514;-64
2023/04/13 22:10:27;;;;;;;4.25;3.17;;;;;;;;;;10291645;28;20342;-65
2023/04/13 22:15:25;;;;;;;3.47;2.92;;;;;;;;;;10289114;28;20068;-65
2023/04/13 22:20:24;;;;;;;2.95;2.42;;;;;;;;;;10285519;28;20072;-64
2023/04/13 22:25:24;;;;;;;2.83;2.53;;;;;;;;;;10288432;28;20068;-65
2023/04/13 22:30:23;;;;;;;4.47;2.97;;;;;;;;;;10287457;28;20072;-66
2023/04/13 22:35:21;;;;;;;6.85;3.20;;;;;;;;;;10292336;28;20352;-66
2023/04/13 22:40:19;;;;;;;2.75;2.53;;;;;;;;;;10287846;28;20080;-64
2023/04/13 22:45:18;;;;;;;3.28;2.35;;;;;;;;;;10293807;28;20079;-66
2023/04/13 22:50:18;;;;;;;8.05;3.50;;;;;;;;;;10288442;28;20076;-65
2023/04/13 22:55:16;;;;;;;6.15;2.65;;;;;;;;;;10291539;28;20083;-66
2023/04/13 23:00:15;;;;;;;2.90;2.58;;;;;;;;;;10291743;28;20132;-65
2023/04/13 23:05:13;;;;;;;3.55;2.60;;;;;;;;;;10288337;28;20069;-65
2023/04/13 23:10:13;;;;;;;3.42;2.63;;;;;;;;;;10271627;28;20079;-64
2023/04/13 23:15:14;;;;;;;4.78;4.00;;;;;;;;;;10291498;28;20083;-65
2023/04/13 23:20:12;;;;;;;10.95;6.10;;;;;;;;;;10291682;28;20498;-66
2023/04/13 23:25:10;;;;;;;9.32;5.63;;;;;;;;;;10291629;28;20076;-66
2023/04/13 23:30:11;;;;;;;7.97;5.30;;;;;;;;;;10274605;28;20510;-66
2023/04/13 23:35:09;;;;;;;18.17;14.65;;;;;;;;;;10285677;28;20100;-66
2023/04/13 23:40:08;;;;;;;6.07;4.95;;;;;;;;;;10282525;28;20091;-66
2023/04/13 23:45:07;;;;;;;8.20;5.15;;;;;;;;;;10284583;28;20083;-66
2023/04/13 23:50:07;;;;;;;6.63;4.90;;;;;;;;;;10285623;28;20073;-66
2023/04/13 23:55:05;;;;;;;7.72;4.47;;;;;;;;;;10285908;28;20076;-66
